sensor_id;sensor_type;location;lat;lon;timestamp;P1;durP1;ratioP1;P2;durP2;ratioP2
62808;SDS011;48848;39.002;-94.584;2022-10-18T00:00:00;456.90;;;88.25;;
62808;SDS011;48848;39.002;-94.584;2022-10-18T00:02:26;443.52;;;104.10;;
62808;SDS011;48848;39.002;-94.584;2022-10-18T00:04:53;416.67;;;105.43;;
62808;SDS011;48848;39.002;-94.584;2022-10-18T00:07:19;409.85;;;111.43;;
62808;SDS011;48848;39.002;-94.584;2022-10-18T00:09:45;388.15;;;112.07;;
62808;SDS011;48848;39.002;-94.584;2022-10-18T00:12:11;390.92;;;105.78;;
62808;SDS011;48848;39.002;-94.584;2022-10-18T00:14:37;357.23;;;103.70;;
62808;SDS011;48848;39.002;-94.584;2022-10-18T00:17:03;312.45;;;87.88;;
62808;SDS011;48848;39.002;-94.584;2022-10-18T00:19:30;318.92;;;91.75;;
62808;SDS011;48848;39.002;-94.584;2022-10-18T00:21:56;315.25;;;88.88;;
62808;SDS011;48848;39.002;-94.584;2022-10-18T00:24:22;242.50;;;67.88;;
62808;SDS011;48848;39.002;-94.584;2022-10-18T00:26:48;192.02;;;60.47;;
62808;SDS011;48848;39.002;-94.584;2022-10-18T00:29:14;168.38;;;50.03;;
62808;SDS011;48848;39.002;-94.584;2022-10-18T00:31:41;139.85;;;43.67;;
62808;SDS011;48848;39.002;-94.584;2022-10-18T00:34:12;135.85;;;41.47;;
62808;SDS011;48848;39.002;-94.584;2022-10-18T00:36:40;119.40;;;38.22;;
62808;SDS011;48848;39.002;-94.584;2022-10-18T00:39:07;136.10;;;42.90;;
62808;SDS011;48848;39.002;-94.584;2022-10-18T00:41:38;130.63;;;42.53;;
62808;SDS011;48848;39.002;-94.584;2022-10-18T00:44:55;128.10;;;40.45;;
62808;SDS011;48848;39.002;-94.584;2022-10-18T00:46:51;126.03;;;41.25;;
62808;SDS011;48848;39.002;-94.584;2022-10-18T00:49:22;124.40;;;39.85;;
62808;SDS011;48848;39.002;-94.584;2022-10-18T00:54:21;114.22;;;37.47;;
62808;SDS011;48848;39.002;-94.584;2022-10-18T00:56:49;103.53;;;34.15;;
62808;SDS011;48848;39.002;-94.584;2022-10-18T00:59:15;98.97;;;32.38;;
62808;SDS011;48848;39.002;-94.584;2022-10-18T01:01:43;96.80;;;31.00;;
62808;SDS011;48848;39.002;-94.584;2022-10-18T01:04:10;101.97;;;30.58;;
62808;SDS011;48848;39.002;-94.584;2022-10-18T01:06:49;91.97;;;30.10;;
62808;SDS011;48848;39.002;-94.584;2022-10-18T01:15:29;87.07;;;24.48;;
62808;SDS011;48848;39.002;-94.584;2022-10-18T01:32:27;60.88;;;17.40;;
62808;SDS011;48848;39.002;-94.584;2022-10-18T01:35:03;59.38;;;17.02;;
62808;SDS011;48848;39.002;-94.584;2022-10-18T01:37:35;56.90;;;15.65;;
62808;SDS011;48848;39.002;-94.584;2022-10-18T01:40:03;50.78;;;15.02;;
62808;SDS011;48848;39.002;-94.584;2022-10-18T01:42:32;42.67;;;14.38;;
62808;SDS011;48848;39.002;-94.584;2022-10-18T01:44:58;39.15;;;13.75;;
62808;SDS011;48848;39.002;-94.584;2022-10-18T01:47:27;38.60;;;13.35;;
62808;SDS011;48848;39.002;-94.584;2022-10-18T01:50:00;40.42;;;12.18;;
62808;SDS011;48848;39.002;-94.584;2022-10-18T01:52:30;29.42;;;10.10;;
62808;SDS011;48848;39.002;-94.584;2022-10-18T01:54:56;21.17;;;8.60;;
62808;SDS011;48848;39.002;-94.584;2022-10-18T02:00:47;17.33;;;7.90;;
62808;SDS011;48848;39.002;-94.584;2022-10-18T02:03:22;21.77;;;6.47;;
62808;SDS011;48848;39.002;-94.584;2022-10-18T02:05:55;16.00;;;6.22;;
62808;SDS011;48848;39.002;-94.584;2022-10-18T02:08:43;26.65;;;6.82;;
62808;SDS011;48848;39.002;-94.584;2022-10-18T02:11:16;17.98;;;6.57;;
62808;SDS011;48848;39.002;-94.584;2022-10-18T02:16:44;19.83;;;6.13;;
62808;SDS011;48848;39.002;-94.584;2022-10-18T02:22:07;20.00;;;6.05;;
62808;SDS011;48848;39.002;-94.584;2022-10-18T02:24:38;13.55;;;5.53;;
62808;SDS011;48848;39.002;-94.584;2022-10-18T02:27:08;21.73;;;5.93;;
62808;SDS011;48848;39.002;-94.584;2022-10-18T02:29:34;11.57;;;4.65;;
62808;SDS011;48848;39.002;-94.584;2022-10-18T02:32:44;12.77;;;5.50;;
62808;SDS011;48848;39.002;-94.584;2022-10-18T02:35:06;10.95;;;3.80;;
62808;SDS011;48848;39.002;-94.584;2022-10-18T02:37:44;12.40;;;4.05;;
62808;SDS011;48848;39.002;-94.584;2022-10-18T02:40:13;8.07;;;3.22;;
62808;SDS011;48848;39.002;-94.584;2022-10-18T02:42:47;9.70;;;3.40;;
62808;SDS011;48848;39.002;-94.584;2022-10-18T02:45:14;11.65;;;3.33;;
62808;SDS011;48848;39.002;-94.584;2022-10-18T02:47:41;9.13;;;3.53;;
62808;SDS011;48848;39.002;-94.584;2022-10-18T02:50:09;11.10;;;3.22;;
62808;SDS011;48848;39.002;-94.584;2022-10-18T02:52:36;12.27;;;3.22;;
62808;SDS011;48848;39.002;-94.584;2022-10-18T02:55:02;8.65;;;3.05;;
62808;SDS011;48848;39.002;-94.584;2022-10-18T02:57:29;9.75;;;3.00;;
62808;SDS011;48848;39.002;-94.584;2022-10-18T02:59:55;9.85;;;3.28;;
62808;SDS011;48848;39.002;-94.584;2022-10-18T03:02:21;8.75;;;2.85;;
62808;SDS011;48848;39.002;-94.584;2022-10-18T03:04:48;11.30;;;2.95;;
62808;SDS011;48848;39.002;-94.584;2022-10-18T03:07:14;5.53;;;2.50;;
62808;SDS011;48848;39.002;-94.584;2022-10-18T03:09:40;8.35;;;2.50;;
62808;SDS011;48848;39.002;-94.584;2022-10-18T03:12:06;7.63;;;2.38;;
62808;SDS011;48848;39.002;-94.584;2022-10-18T03:14:33;7.20;;;2.45;;
62808;SDS011;48848;39.002;-94.584;2022-10-18T03:16:59;8.02;;;2.88;;
62808;SDS011;48848;39.002;-94.584;2022-10-18T03:19:25;5.13;;;2.05;;
62808;SDS011;48848;39.002;-94.584;2022-10-18T03:21:51;12.20;;;2.58;;
62808;SDS011;48848;39.002;-94.584;2022-10-18T03:24:17;16.27;;;4.35;;
62808;SDS011;48848;39.002;-94.584;2022-10-18T03:26:44;9.90;;;3.08;;
62808;SDS011;48848;39.002;-94.584;2022-10-18T03:29:10;11.95;;;3.47;;
62808;SDS011;48848;39.002;-94.584;2022-10-18T03:31:36;9.38;;;3.13;;
62808;SDS011;48848;39.002;-94.584;2022-10-18T03:34:03;8.18;;;3.00;;
62808;SDS011;48848;39.002;-94.584;2022-10-18T03:36:29;12.32;;;3.33;;
62808;SDS011;48848;39.002;-94.584;2022-10-18T03:38:55;10.25;;;3.00;;
62808;SDS011;48848;39.002;-94.584;2022-10-18T03:41:21;9.65;;;3.03;;
62808;SDS011;48848;39.002;-94.584;2022-10-18T03:43:48;8.50;;;2.50;;
62808;SDS011;48848;39.002;-94.584;2022-10-18T03:46:14;7.72;;;2.70;;
62808;SDS011;48848;39.002;-94.584;2022-10-18T03:48:40;7.78;;;2.40;;
62808;SDS011;48848;39.002;-94.584;2022-10-18T03:51:06;6.35;;;2.25;;
62808;SDS011;48848;39.002;-94.584;2022-10-18T03:53:32;7.38;;;2.83;;
62808;SDS011;48848;39.002;-94.584;2022-10-18T03:55:58;6.28;;;2.05;;
62808;SDS011;48848;39.002;-94.584;2022-10-18T03:58:25;10.45;;;2.00;;
62808;SDS011;48848;39.002;-94.584;2022-10-18T04:00:51;6.78;;;2.00;;
62808;SDS011;48848;39.002;-94.584;2022-10-18T04:03:19;6.60;;;1.75;;
62808;SDS011;48848;39.002;-94.584;2022-10-18T04:05:46;7.68;;;2.03;;
62808;SDS011;48848;39.002;-94.584;2022-10-18T04:08:13;5.05;;;1.77;;
62808;SDS011;48848;39.002;-94.584;2022-10-18T04:10:40;5.53;;;1.88;;
62808;SDS011;48848;39.002;-94.584;2022-10-18T04:13:07;9.10;;;1.75;;
62808;SDS011;48848;39.002;-94.584;2022-10-18T04:15:33;6.20;;;1.52;;
62808;SDS011;48848;39.002;-94.584;2022-10-18T04:18:00;6.50;;;1.58;;
62808;SDS011;48848;39.002;-94.584;2022-10-18T04:20:26;5.65;;;1.30;;
62808;SDS011;48848;39.002;-94.584;2022-10-18T04:22:53;4.57;;;1.40;;
62808;SDS011;48848;39.002;-94.584;2022-10-18T04:25:21;4.72;;;1.40;;
62808;SDS011;48848;39.002;-94.584;2022-10-18T04:27:48;5.80;;;1.60;;
62808;SDS011;48848;39.002;-94.584;2022-10-18T04:30:14;4.00;;;1.35;;
62808;SDS011;48848;39.002;-94.584;2022-10-18T04:32:41;8.70;;;2.00;;
62808;SDS011;48848;39.002;-94.584;2022-10-18T04:35:08;5.05;;;1.50;;
62808;SDS011;48848;39.002;-94.584;2022-10-18T04:37:35;8.07;;;1.40;;
62808;SDS011;48848;39.002;-94.584;2022-10-18T04:40:01;5.03;;;1.48;;
62808;SDS011;48848;39.002;-94.584;2022-10-18T04:42:28;7.05;;;1.50;;
62808;SDS011;48848;39.002;-94.584;2022-10-18T04:44:54;6.75;;;1.50;;
62808;SDS011;48848;39.002;-94.584;2022-10-18T04:47:20;6.50;;;1.55;;
62808;SDS011;48848;39.002;-94.584;2022-10-18T04:49:46;7.63;;;1.40;;
62808;SDS011;48848;39.002;-94.584;2022-10-18T04:52:12;6.00;;;1.20;;
62808;SDS011;48848;39.002;-94.584;2022-10-18T04:54:39;3.42;;;1.13;;
62808;SDS011;48848;39.002;-94.584;2022-10-18T04:57:05;7.03;;;1.30;;
62808;SDS011;48848;39.002;-94.584;2022-10-18T04:59:31;5.03;;;1.42;;
62808;SDS011;48848;39.002;-94.584;2022-10-18T05:01:57;9.35;;;1.42;;
62808;SDS011;48848;39.002;-94.584;2022-10-18T05:04:23;4.05;;;1.20;;
62808;SDS011;48848;39.002;-94.584;2022-10-18T05:06:49;5.05;;;1.30;;
62808;SDS011;48848;39.002;-94.584;2022-10-18T05:09:16;3.40;;;1.40;;
62808;SDS011;48848;39.002;-94.584;2022-10-18T05:11:42;6.97;;;1.67;;
62808;SDS011;48848;39.002;-94.584;2022-10-18T05:14:08;3.78;;;1.13;;
62808;SDS011;48848;39.002;-94.584;2022-10-18T05:16:35;3.75;;;1.10;;
62808;SDS011;48848;39.002;-94.584;2022-10-18T05:19:02;8.30;;;1.38;;
62808;SDS011;48848;39.002;-94.584;2022-10-18T05:21:29;4.25;;;1.10;;
62808;SDS011;48848;39.002;-94.584;2022-10-18T05:23:56;6.68;;;1.30;;
62808;SDS011;48848;39.002;-94.584;2022-10-18T05:26:22;2.38;;;1.00;;
62808;SDS011;48848;39.002;-94.584;2022-10-18T05:28:49;3.90;;;1.48;;
62808;SDS011;48848;39.002;-94.584;2022-10-18T05:31:15;6.07;;;1.13;;
62808;SDS011;48848;39.002;-94.584;2022-10-18T05:33:41;3.80;;;0.93;;
62808;SDS011;48848;39.002;-94.584;2022-10-18T05:36:08;3.25;;;1.20;;
62808;SDS011;48848;39.002;-94.584;2022-10-18T05:38:37;2.20;;;1.13;;
62808;SDS011;48848;39.002;-94.584;2022-10-18T05:41:06;6.60;;;1.38;;
62808;SDS011;48848;39.002;-94.584;2022-10-18T05:43:33;3.78;;;0.90;;
62808;SDS011;48848;39.002;-94.584;2022-10-18T05:45:59;5.07;;;1.30;;
62808;SDS011;48848;39.002;-94.584;2022-10-18T05:48:25;2.95;;;0.95;;
62808;SDS011;48848;39.002;-94.584;2022-10-18T05:50:51;7.68;;;1.20;;
62808;SDS011;48848;39.002;-94.584;2022-10-18T05:53:17;3.97;;;1.20;;
62808;SDS011;48848;39.002;-94.584;2022-10-18T05:55:44;3.42;;;1.00;;
62808;SDS011;48848;39.002;-94.584;2022-10-18T05:58:10;6.25;;;1.30;;
62808;SDS011;48848;39.002;-94.584;2022-10-18T06:00:36;1.85;;;0.93;;
62808;SDS011;48848;39.002;-94.584;2022-10-18T06:03:02;3.00;;;1.17;;
62808;SDS011;48848;39.002;-94.584;2022-10-18T06:05:29;3.72;;;1.20;;
62808;SDS011;48848;39.002;-94.584;2022-10-18T06:07:55;3.17;;;1.10;;
62808;SDS011;48848;39.002;-94.584;2022-10-18T06:10:21;3.25;;;1.00;;
62808;SDS011;48848;39.002;-94.584;2022-10-18T06:12:48;4.72;;;0.90;;
62808;SDS011;48848;39.002;-94.584;2022-10-18T06:15:14;6.25;;;1.17;;
62808;SDS011;48848;39.002;-94.584;2022-10-18T06:17:40;5.28;;;1.08;;
62808;SDS011;48848;39.002;-94.584;2022-10-18T06:20:06;3.35;;;0.93;;
62808;SDS011;48848;39.002;-94.584;2022-10-18T06:22:33;4.93;;;1.10;;
62808;SDS011;48848;39.002;-94.584;2022-10-18T06:24:59;4.57;;;1.00;;
62808;SDS011;48848;39.002;-94.584;2022-10-18T06:27:25;3.10;;;1.02;;
62808;SDS011;48848;39.002;-94.584;2022-10-18T06:29:52;1.80;;;0.95;;
62808;SDS011;48848;39.002;-94.584;2022-10-18T06:32:18;1.95;;;0.93;;
62808;SDS011;48848;39.002;-94.584;2022-10-18T06:34:44;3.13;;;1.00;;
62808;SDS011;48848;39.002;-94.584;2022-10-18T06:37:10;3.05;;;0.90;;
62808;SDS011;48848;39.002;-94.584;2022-10-18T06:39:36;5.65;;;1.15;;
62808;SDS011;48848;39.002;-94.584;2022-10-18T06:42:02;4.35;;;1.10;;
62808;SDS011;48848;39.002;-94.584;2022-10-18T06:44:29;4.45;;;1.00;;
62808;SDS011;48848;39.002;-94.584;2022-10-18T06:46:55;5.57;;;0.90;;
62808;SDS011;48848;39.002;-94.584;2022-10-18T06:49:21;3.03;;;1.00;;
62808;SDS011;48848;39.002;-94.584;2022-10-18T06:51:48;3.08;;;1.02;;
62808;SDS011;48848;39.002;-94.584;2022-10-18T06:54:14;4.10;;;0.93;;
62808;SDS011;48848;39.002;-94.584;2022-10-18T06:56:40;9.15;;;1.50;;
62808;SDS011;48848;39.002;-94.584;2022-10-18T06:59:07;2.55;;;0.65;;
62808;SDS011;48848;39.002;-94.584;2022-10-18T07:01:33;3.08;;;0.70;;
62808;SDS011;48848;39.002;-94.584;2022-10-18T07:03:59;7.22;;;1.65;;
62808;SDS011;48848;39.002;-94.584;2022-10-18T07:06:25;2.58;;;0.90;;
62808;SDS011;48848;39.002;-94.584;2022-10-18T07:08:51;2.35;;;0.88;;
62808;SDS011;48848;39.002;-94.584;2022-10-18T07:11:24;2.58;;;0.70;;
62808;SDS011;48848;39.002;-94.584;2022-10-18T07:13:52;2.22;;;0.77;;
62808;SDS011;48848;39.002;-94.584;2022-10-18T07:16:24;3.05;;;0.70;;
62808;SDS011;48848;39.002;-94.584;2022-10-18T07:18:50;3.05;;;0.98;;
62808;SDS011;48848;39.002;-94.584;2022-10-18T07:21:18;0.98;;;0.60;;
62808;SDS011;48848;39.002;-94.584;2022-10-18T07:23:45;2.75;;;0.80;;
62808;SDS011;48848;39.002;-94.584;2022-10-18T07:28:47;1.75;;;0.60;;
62808;SDS011;48848;39.002;-94.584;2022-10-18T07:31:16;3.03;;;0.80;;
62808;SDS011;48848;39.002;-94.584;2022-10-18T07:33:42;3.45;;;0.70;;
62808;SDS011;48848;39.002;-94.584;2022-10-18T07:36:09;4.63;;;0.73;;
62808;SDS011;48848;39.002;-94.584;2022-10-18T07:38:36;2.45;;;0.73;;
62808;SDS011;48848;39.002;-94.584;2022-10-18T07:41:03;2.05;;;0.85;;
62808;SDS011;48848;39.002;-94.584;2022-10-18T07:43:31;2.95;;;0.73;;
62808;SDS011;48848;39.002;-94.584;2022-10-18T07:45:58;1.63;;;0.80;;
62808;SDS011;48848;39.002;-94.584;2022-10-18T07:48:26;1.13;;;0.60;;
62808;SDS011;48848;39.002;-94.584;2022-10-18T07:50:52;4.78;;;0.77;;
62808;SDS011;48848;39.002;-94.584;2022-10-18T07:53:19;3.22;;;0.70;;
62808;SDS011;48848;39.002;-94.584;2022-10-18T07:55:45;2.22;;;0.68;;
62808;SDS011;48848;39.002;-94.584;2022-10-18T07:58:11;1.42;;;0.60;;
62808;SDS011;48848;39.002;-94.584;2022-10-18T08:00:37;1.63;;;0.70;;
62808;SDS011;48848;39.002;-94.584;2022-10-18T08:03:04;1.05;;;0.55;;
62808;SDS011;48848;39.002;-94.584;2022-10-18T08:05:30;2.63;;;0.68;;
62808;SDS011;48848;39.002;-94.584;2022-10-18T08:07:57;4.78;;;0.70;;
62808;SDS011;48848;39.002;-94.584;2022-10-18T08:10:23;0.73;;;0.60;;
62808;SDS011;48848;39.002;-94.584;2022-10-18T08:12:49;0.98;;;0.60;;
62808;SDS011;48848;39.002;-94.584;2022-10-18T08:15:16;2.63;;;0.80;;
62808;SDS011;48848;39.002;-94.584;2022-10-18T08:17:42;2.00;;;0.68;;
62808;SDS011;48848;39.002;-94.584;2022-10-18T08:20:08;2.67;;;0.70;;
62808;SDS011;48848;39.002;-94.584;2022-10-18T08:22:35;3.58;;;0.63;;
62808;SDS011;48848;39.002;-94.584;2022-10-18T08:25:01;2.35;;;0.60;;
62808;SDS011;48848;39.002;-94.584;2022-10-18T08:27:27;4.07;;;0.70;;
62808;SDS011;48848;39.002;-94.584;2022-10-18T08:29:53;4.38;;;0.80;;
62808;SDS011;48848;39.002;-94.584;2022-10-18T08:32:20;2.05;;;0.68;;
62808;SDS011;48848;39.002;-94.584;2022-10-18T08:34:46;2.03;;;0.73;;
62808;SDS011;48848;39.002;-94.584;2022-10-18T08:37:12;1.40;;;0.52;;
62808;SDS011;48848;39.002;-94.584;2022-10-18T08:39:38;2.22;;;0.50;;
62808;SDS011;48848;39.002;-94.584;2022-10-18T08:44:55;0.68;;;0.57;;
62808;SDS011;48848;39.002;-94.584;2022-10-18T08:47:28;2.47;;;0.70;;
62808;SDS011;48848;39.002;-94.584;2022-10-18T08:50:03;3.05;;;0.80;;
62808;SDS011;48848;39.002;-94.584;2022-10-18T08:58:00;4.43;;;0.70;;
62808;SDS011;48848;39.002;-94.584;2022-10-18T09:00:29;2.75;;;0.70;;
62808;SDS011;48848;39.002;-94.584;2022-10-18T09:03:06;3.33;;;0.60;;
62808;SDS011;48848;39.002;-94.584;2022-10-18T09:06:48;1.42;;;0.68;;
62808;SDS011;48848;39.002;-94.584;2022-10-18T09:11:37;5.18;;;0.80;;
62808;SDS011;48848;39.002;-94.584;2022-10-18T09:22:54;2.88;;;0.80;;
62808;SDS011;48848;39.002;-94.584;2022-10-18T09:25:38;1.88;;;0.80;;
62808;SDS011;48848;39.002;-94.584;2022-10-18T09:31:16;4.00;;;0.88;;
62808;SDS011;48848;39.002;-94.584;2022-10-18T09:33:52;1.20;;;0.75;;
62808;SDS011;48848;39.002;-94.584;2022-10-18T09:36:27;3.80;;;0.65;;
62808;SDS011;48848;39.002;-94.584;2022-10-18T09:39:13;2.35;;;0.60;;
62808;SDS011;48848;39.002;-94.584;2022-10-18T09:41:48;1.75;;;0.70;;
62808;SDS011;48848;39.002;-94.584;2022-10-18T09:44:21;5.18;;;0.90;;
62808;SDS011;48848;39.002;-94.584;2022-10-18T09:47:02;1.17;;;0.77;;
62808;SDS011;48848;39.002;-94.584;2022-10-18T09:49:44;2.08;;;0.80;;
62808;SDS011;48848;39.002;-94.584;2022-10-18T09:52:14;2.70;;;0.70;;
62808;SDS011;48848;39.002;-94.584;2022-10-18T09:54:58;1.92;;;0.60;;
62808;SDS011;48848;39.002;-94.584;2022-10-18T09:57:34;1.35;;;0.60;;
62808;SDS011;48848;39.002;-94.584;2022-10-18T10:00:06;2.45;;;0.70;;
62808;SDS011;48848;39.002;-94.584;2022-10-18T10:02:41;4.70;;;0.80;;
62808;SDS011;48848;39.002;-94.584;2022-10-18T10:05:13;1.30;;;0.70;;
62808;SDS011;48848;39.002;-94.584;2022-10-18T10:07:41;2.00;;;0.60;;
62808;SDS011;48848;39.002;-94.584;2022-10-18T10:12:46;3.60;;;1.15;;
62808;SDS011;48848;39.002;-94.584;2022-10-18T10:15:18;4.05;;;0.90;;
62808;SDS011;48848;39.002;-94.584;2022-10-18T10:18:00;1.98;;;0.70;;
62808;SDS011;48848;39.002;-94.584;2022-10-18T10:20:36;1.67;;;0.70;;
62808;SDS011;48848;39.002;-94.584;2022-10-18T10:23:30;5.22;;;0.98;;
62808;SDS011;48848;39.002;-94.584;2022-10-18T10:25:59;1.52;;;0.70;;
62808;SDS011;48848;39.002;-94.584;2022-10-18T10:28:41;2.58;;;0.80;;
62808;SDS011;48848;39.002;-94.584;2022-10-18T10:31:31;4.07;;;0.80;;
62808;SDS011;48848;39.002;-94.584;2022-10-18T10:34:04;1.10;;;0.80;;
62808;SDS011;48848;39.002;-94.584;2022-10-18T10:36:37;3.65;;;0.65;;
62808;SDS011;48848;39.002;-94.584;2022-10-18T10:39:15;6.00;;;0.80;;
62808;SDS011;48848;39.002;-94.584;2022-10-18T10:42:16;1.75;;;0.73;;
62808;SDS011;48848;39.002;-94.584;2022-10-18T10:44:37;4.13;;;1.00;;
62808;SDS011;48848;39.002;-94.584;2022-10-18T10:47:26;1.65;;;0.60;;
62808;SDS011;48848;39.002;-94.584;2022-10-18T10:49:55;1.50;;;0.60;;
62808;SDS011;48848;39.002;-94.584;2022-10-18T10:52:22;5.43;;;0.75;;
62808;SDS011;48848;39.002;-94.584;2022-10-18T10:54:51;3.85;;;0.90;;
62808;SDS011;48848;39.002;-94.584;2022-10-18T10:57:21;3.80;;;0.90;;
62808;SDS011;48848;39.002;-94.584;2022-10-18T10:59:51;3.42;;;0.70;;
62808;SDS011;48848;39.002;-94.584;2022-10-18T11:04:52;0.80;;;0.50;;
62808;SDS011;48848;39.002;-94.584;2022-10-18T11:12:42;1.17;;;0.77;;
62808;SDS011;48848;39.002;-94.584;2022-10-18T11:23:26;3.05;;;0.50;;
62808;SDS011;48848;39.002;-94.584;2022-10-18T11:34:27;1.20;;;0.70;;
62808;SDS011;48848;39.002;-94.584;2022-10-18T11:40:01;2.65;;;0.80;;
62808;SDS011;48848;39.002;-94.584;2022-10-18T11:45:25;1.98;;;0.75;;
62808;SDS011;48848;39.002;-94.584;2022-10-18T11:53:35;1.50;;;0.60;;
62808;SDS011;48848;39.002;-94.584;2022-10-18T11:58:50;5.28;;;0.82;;
62808;SDS011;48848;39.002;-94.584;2022-10-18T12:04:26;4.18;;;0.70;;
62808;SDS011;48848;39.002;-94.584;2022-10-18T12:06:59;3.55;;;0.75;;
62808;SDS011;48848;39.002;-94.584;2022-10-18T12:09:42;2.33;;;0.75;;
62808;SDS011;48848;39.002;-94.584;2022-10-18T12:14:45;4.22;;;0.90;;
62808;SDS011;48848;39.002;-94.584;2022-10-18T12:17:19;2.05;;;0.70;;
62808;SDS011;48848;39.002;-94.584;2022-10-18T12:20:13;0.63;;;0.50;;
62808;SDS011;48848;39.002;-94.584;2022-10-18T12:22:54;1.58;;;0.80;;
62808;SDS011;48848;39.002;-94.584;2022-10-18T12:25:27;1.58;;;0.65;;
62808;SDS011;48848;39.002;-94.584;2022-10-18T12:27:56;2.05;;;0.90;;
62808;SDS011;48848;39.002;-94.584;2022-10-18T12:30:41;4.18;;;0.63;;
62808;SDS011;48848;39.002;-94.584;2022-10-18T12:33:13;4.93;;;0.80;;
62808;SDS011;48848;39.002;-94.584;2022-10-18T12:35:57;1.85;;;0.70;;
62808;SDS011;48848;39.002;-94.584;2022-10-18T12:38:44;1.95;;;0.80;;
62808;SDS011;48848;39.002;-94.584;2022-10-18T12:41:37;4.30;;;0.60;;
62808;SDS011;48848;39.002;-94.584;2022-10-18T12:46:57;5.25;;;0.65;;
62808;SDS011;48848;39.002;-94.584;2022-10-18T12:49:29;1.80;;;0.55;;
62808;SDS011;48848;39.002;-94.584;2022-10-18T12:52:06;4.55;;;0.80;;
62808;SDS011;48848;39.002;-94.584;2022-10-18T12:55:04;2.22;;;0.70;;
62808;SDS011;48848;39.002;-94.584;2022-10-18T13:13:52;3.88;;;0.70;;
62808;SDS011;48848;39.002;-94.584;2022-10-18T13:16:56;6.75;;;1.00;;
62808;SDS011;48848;39.002;-94.584;2022-10-18T13:32:31;3.28;;;0.90;;
62808;SDS011;48848;39.002;-94.584;2022-10-18T13:38:02;2.15;;;0.80;;
62808;SDS011;48848;39.002;-94.584;2022-10-18T13:40:41;2.83;;;0.70;;
62808;SDS011;48848;39.002;-94.584;2022-10-18T13:43:46;1.85;;;0.70;;
62808;SDS011;48848;39.002;-94.584;2022-10-18T13:46:18;4.82;;;0.90;;
62808;SDS011;48848;39.002;-94.584;2022-10-18T13:48:52;2.13;;;0.82;;
62808;SDS011;48848;39.002;-94.584;2022-10-18T13:56:33;3.92;;;0.90;;
62808;SDS011;48848;39.002;-94.584;2022-10-18T13:59:29;2.60;;;0.70;;
62808;SDS011;48848;39.002;-94.584;2022-10-18T14:02:20;3.58;;;0.75;;
62808;SDS011;48848;39.002;-94.584;2022-10-18T14:04:58;1.52;;;0.70;;
62808;SDS011;48848;39.002;-94.584;2022-10-18T14:07:40;2.53;;;0.60;;
62808;SDS011;48848;39.002;-94.584;2022-10-18T14:10:10;2.80;;;0.60;;
62808;SDS011;48848;39.002;-94.584;2022-10-18T14:13:04;2.15;;;0.68;;
62808;SDS011;48848;39.002;-94.584;2022-10-18T14:15:41;1.60;;;0.70;;
62808;SDS011;48848;39.002;-94.584;2022-10-18T14:18:12;4.60;;;0.90;;
62808;SDS011;48848;39.002;-94.584;2022-10-18T14:20:42;0.88;;;0.52;;
62808;SDS011;48848;39.002;-94.584;2022-10-18T14:25:44;1.30;;;0.65;;
62808;SDS011;48848;39.002;-94.584;2022-10-18T14:28:15;6.47;;;1.15;;
62808;SDS011;48848;39.002;-94.584;2022-10-18T14:30:50;5.07;;;0.95;;
62808;SDS011;48848;39.002;-94.584;2022-10-18T14:33:30;2.85;;;0.82;;
62808;SDS011;48848;39.002;-94.584;2022-10-18T14:38:50;3.58;;;0.80;;
62808;SDS011;48848;39.002;-94.584;2022-10-18T14:41:25;4.85;;;0.73;;
62808;SDS011;48848;39.002;-94.584;2022-10-18T14:44:08;6.43;;;0.68;;
62808;SDS011;48848;39.002;-94.584;2022-10-18T14:46:43;2.00;;;0.70;;
62808;SDS011;48848;39.002;-94.584;2022-10-18T14:49:14;0.90;;;0.60;;
62808;SDS011;48848;39.002;-94.584;2022-10-18T14:51:42;1.25;;;0.70;;
62808;SDS011;48848;39.002;-94.584;2022-10-18T14:54:12;0.75;;;0.60;;
62808;SDS011;48848;39.002;-94.584;2022-10-18T14:56:42;1.45;;;0.77;;
62808;SDS011;48848;39.002;-94.584;2022-10-18T14:59:16;2.40;;;0.98;;
62808;SDS011;48848;39.002;-94.584;2022-10-18T15:02:21;1.38;;;0.60;;
62808;SDS011;48848;39.002;-94.584;2022-10-18T15:07:50;1.35;;;0.85;;
62808;SDS011;48848;39.002;-94.584;2022-10-18T15:10:19;1.15;;;0.68;;
62808;SDS011;48848;39.002;-94.584;2022-10-18T15:12:55;1.80;;;0.93;;
62808;SDS011;48848;39.002;-94.584;2022-10-18T15:15:27;2.35;;;0.70;;
62808;SDS011;48848;39.002;-94.584;2022-10-18T15:17:55;1.65;;;0.60;;
62808;SDS011;48848;39.002;-94.584;2022-10-18T15:20:25;1.10;;;0.60;;
62808;SDS011;48848;39.002;-94.584;2022-10-18T15:25:43;3.08;;;0.70;;
62808;SDS011;48848;39.002;-94.584;2022-10-18T15:28:56;1.65;;;0.60;;
62808;SDS011;48848;39.002;-94.584;2022-10-18T15:31:03;1.73;;;0.80;;
62808;SDS011;48848;39.002;-94.584;2022-10-18T15:33:31;2.58;;;0.85;;
62808;SDS011;48848;39.002;-94.584;2022-10-18T15:36:08;1.92;;;0.90;;
62808;SDS011;48848;39.002;-94.584;2022-10-18T15:38:36;2.70;;;0.80;;
62808;SDS011;48848;39.002;-94.584;2022-10-18T15:41:49;2.47;;;0.60;;
62808;SDS011;48848;39.002;-94.584;2022-10-18T15:44:47;1.63;;;1.00;;
62808;SDS011;48848;39.002;-94.584;2022-10-18T15:54:54;1.38;;;0.60;;
62808;SDS011;48848;39.002;-94.584;2022-10-18T15:57:21;2.67;;;0.70;;
62808;SDS011;48848;39.002;-94.584;2022-10-18T15:59:50;0.70;;;0.60;;
62808;SDS011;48848;39.002;-94.584;2022-10-18T16:02:19;0.95;;;0.60;;
62808;SDS011;48848;39.002;-94.584;2022-10-18T16:04:45;1.27;;;0.75;;
62808;SDS011;48848;39.002;-94.584;2022-10-18T16:07:12;1.98;;;0.60;;
62808;SDS011;48848;39.002;-94.584;2022-10-18T16:09:38;1.10;;;0.57;;
62808;SDS011;48848;39.002;-94.584;2022-10-18T16:12:04;2.15;;;0.70;;
62808;SDS011;48848;39.002;-94.584;2022-10-18T16:14:30;3.95;;;0.85;;
62808;SDS011;48848;39.002;-94.584;2022-10-18T16:16:57;1.40;;;0.77;;
62808;SDS011;48848;39.002;-94.584;2022-10-18T16:19:25;3.60;;;0.70;;
62808;SDS011;48848;39.002;-94.584;2022-10-18T16:21:52;1.70;;;0.75;;
62808;SDS011;48848;39.002;-94.584;2022-10-18T16:24:19;1.63;;;0.50;;
62808;SDS011;48848;39.002;-94.584;2022-10-18T16:26:46;1.75;;;0.68;;
62808;SDS011;48848;39.002;-94.584;2022-10-18T16:29:17;1.08;;;0.57;;
62808;SDS011;48848;39.002;-94.584;2022-10-18T16:31:48;1.15;;;0.70;;
62808;SDS011;48848;39.002;-94.584;2022-10-18T16:34:16;0.90;;;0.57;;
62808;SDS011;48848;39.002;-94.584;2022-10-18T16:36:42;1.65;;;0.70;;
62808;SDS011;48848;39.002;-94.584;2022-10-18T16:39:16;0.90;;;0.52;;
62808;SDS011;48848;39.002;-94.584;2022-10-18T16:41:43;2.78;;;0.70;;
62808;SDS011;48848;39.002;-94.584;2022-10-18T16:44:10;1.77;;;0.88;;
62808;SDS011;48848;39.002;-94.584;2022-10-18T16:46:36;1.00;;;0.70;;
62808;SDS011;48848;39.002;-94.584;2022-10-18T16:49:03;1.30;;;0.70;;
62808;SDS011;48848;39.002;-94.584;2022-10-18T16:51:29;0.88;;;0.80;;
62808;SDS011;48848;39.002;-94.584;2022-10-18T16:53:56;1.08;;;0.68;;
62808;SDS011;48848;39.002;-94.584;2022-10-18T16:56:26;1.20;;;0.70;;
62808;SDS011;48848;39.002;-94.584;2022-10-18T16:58:58;1.73;;;0.80;;
62808;SDS011;48848;39.002;-94.584;2022-10-18T17:01:25;0.70;;;0.60;;
62808;SDS011;48848;39.002;-94.584;2022-10-18T17:03:51;1.30;;;0.70;;
62808;SDS011;48848;39.002;-94.584;2022-10-18T17:06:25;1.10;;;0.70;;
62808;SDS011;48848;39.002;-94.584;2022-10-18T17:08:54;3.47;;;0.80;;
62808;SDS011;48848;39.002;-94.584;2022-10-18T17:11:23;0.73;;;0.70;;
62808;SDS011;48848;39.002;-94.584;2022-10-18T17:13:50;1.70;;;0.70;;
62808;SDS011;48848;39.002;-94.584;2022-10-18T17:16:21;4.55;;;0.80;;
62808;SDS011;48848;39.002;-94.584;2022-10-18T17:18:50;3.85;;;0.80;;